sensor_id;sensor_type;location;lat;lon;timestamp;P1;durP1;ratioP1;P2;durP2;ratioP2
5058;SDS011;2548;52.050;11.036;2024-03-25T00:01:05;14.10;;;3.70;;
5058;SDS011;2548;52.050;11.036;2024-03-25T00:03:32;3.97;;;2.80;;
5058;SDS011;2548;52.050;11.036;2024-03-25T00:05:59;3.00;;;2.78;;
5058;SDS011;2548;52.050;11.036;2024-03-25T00:08:25;5.97;;;3.05;;
5058;SDS011;2548;52.050;11.036;2024-03-25T00:10:54;6.15;;;3.35;;
5058;SDS011;2548;52.050;11.036;2024-03-25T00:13:21;5.10;;;2.72;;
5058;SDS011;2548;52.050;11.036;2024-03-25T00:15:48;5.57;;;3.05;;
5058;SDS011;2548;52.050;11.036;2024-03-25T00:18:15;3.50;;;2.40;;
5058;SDS011;2548;52.050;11.036;2024-03-25T00:20:42;6.05;;;2.92;;
5058;SDS011;2548;52.050;11.036;2024-03-25T00:23:08;3.00;;;2.80;;
5058;SDS011;2548;52.050;11.036;2024-03-25T00:25:37;9.07;;;3.55;;
5058;SDS011;2548;52.050;11.036;2024-03-25T00:28:05;3.42;;;3.03;;
5058;SDS011;2548;52.050;11.036;2024-03-25T00:30:32;8.55;;;2.55;;
5058;SDS011;2548;52.050;11.036;2024-03-25T00:32:58;4.65;;;2.70;;
5058;SDS011;2548;52.050;11.036;2024-03-25T00:35:26;4.15;;;2.47;;
5058;SDS011;2548;52.050;11.036;2024-03-25T00:37:53;2.17;;;2.00;;
5058;SDS011;2548;52.050;11.036;2024-03-25T00:40:20;4.63;;;2.60;;
5058;SDS011;2548;52.050;11.036;2024-03-25T00:42:46;4.82;;;2.85;;
5058;SDS011;2548;52.050;11.036;2024-03-25T00:45:15;8.65;;;2.08;;
5058;SDS011;2548;52.050;11.036;2024-03-25T00:47:41;4.70;;;2.63;;
5058;SDS011;2548;52.050;11.036;2024-03-25T00:50:09;10.30;;;2.70;;
5058;SDS011;2548;52.050;11.036;2024-03-25T00:52:35;4.28;;;2.97;;
5058;SDS011;2548;52.050;11.036;2024-03-25T00:55:03;2.30;;;2.10;;
5058;SDS011;2548;52.050;11.036;2024-03-25T00:57:30;2.58;;;2.30;;
5058;SDS011;2548;52.050;11.036;2024-03-25T00:59:58;6.78;;;2.70;;
5058;SDS011;2548;52.050;11.036;2024-03-25T01:02:26;3.58;;;2.30;;
5058;SDS011;2548;52.050;11.036;2024-03-25T01:04:54;5.68;;;2.60;;
5058;SDS011;2548;52.050;11.036;2024-03-25T01:07:22;5.07;;;2.50;;
5058;SDS011;2548;52.050;11.036;2024-03-25T01:09:48;3.63;;;1.80;;
5058;SDS011;2548;52.050;11.036;2024-03-25T01:12:15;4.45;;;2.35;;
5058;SDS011;2548;52.050;11.036;2024-03-25T01:14:42;8.10;;;2.15;;
5058;SDS011;2548;52.050;11.036;2024-03-25T01:17:09;4.40;;;2.42;;
5058;SDS011;2548;52.050;11.036;2024-03-25T01:19:37;5.13;;;2.33;;
5058;SDS011;2548;52.050;11.036;2024-03-25T01:22:04;12.52;;;3.13;;
5058;SDS011;2548;52.050;11.036;2024-03-25T01:24:31;2.67;;;2.10;;
5058;SDS011;2548;52.050;11.036;2024-03-25T01:26:58;10.15;;;2.45;;
5058;SDS011;2548;52.050;11.036;2024-03-25T01:29:24;9.80;;;3.42;;
5058;SDS011;2548;52.050;11.036;2024-03-25T01:31:52;12.73;;;3.83;;
5058;SDS011;2548;52.050;11.036;2024-03-25T01:34:18;8.15;;;4.20;;
5058;SDS011;2548;52.050;11.036;2024-03-25T01:36:47;9.60;;;4.35;;
5058;SDS011;2548;52.050;11.036;2024-03-25T01:39:13;11.45;;;4.00;;
5058;SDS011;2548;52.050;11.036;2024-03-25T01:41:40;4.15;;;3.47;;
5058;SDS011;2548;52.050;11.036;2024-03-25T01:44:07;8.52;;;3.17;;
5058;SDS011;2548;52.050;11.036;2024-03-25T01:46:35;6.05;;;3.00;;
5058;SDS011;2548;52.050;11.036;2024-03-25T01:49:02;11.07;;;3.50;;
5058;SDS011;2548;52.050;11.036;2024-03-25T01:51:30;10.90;;;3.65;;
5058;SDS011;2548;52.050;11.036;2024-03-25T01:53:57;4.90;;;2.55;;
5058;SDS011;2548;52.050;11.036;2024-03-25T01:56:26;4.25;;;3.40;;
5058;SDS011;2548;52.050;11.036;2024-03-25T01:58:55;2.60;;;2.40;;
5058;SDS011;2548;52.050;11.036;2024-03-25T02:01:22;9.07;;;3.13;;
5058;SDS011;2548;52.050;11.036;2024-03-25T02:03:49;3.58;;;2.90;;
5058;SDS011;2548;52.050;11.036;2024-03-25T02:06:17;8.75;;;3.05;;
5058;SDS011;2548;52.050;11.036;2024-03-25T02:08:44;4.15;;;3.25;;
5058;SDS011;2548;52.050;11.036;2024-03-25T02:11:13;12.48;;;3.75;;
5058;SDS011;2548;52.050;11.036;2024-03-25T02:13:40;3.67;;;2.50;;
5058;SDS011;2548;52.050;11.036;2024-03-25T02:16:07;5.13;;;2.83;;
5058;SDS011;2548;52.050;11.036;2024-03-25T02:18:34;10.98;;;3.80;;
5058;SDS011;2548;52.050;11.036;2024-03-25T02:21:01;3.08;;;2.72;;
5058;SDS011;2548;52.050;11.036;2024-03-25T02:23:28;2.58;;;1.88;;
5058;SDS011;2548;52.050;11.036;2024-03-25T02:25:57;8.30;;;2.42;;
5058;SDS011;2548;52.050;11.036;2024-03-25T02:28:23;11.95;;;2.70;;
5058;SDS011;2548;52.050;11.036;2024-03-25T02:30:50;10.68;;;2.97;;
5058;SDS011;2548;52.050;11.036;2024-03-25T02:33:17;11.15;;;3.05;;
5058;SDS011;2548;52.050;11.036;2024-03-25T02:35:44;4.45;;;2.63;;
5058;SDS011;2548;52.050;11.036;2024-03-25T02:38:10;12.13;;;3.75;;
5058;SDS011;2548;52.050;11.036;2024-03-25T02:40:38;4.38;;;3.45;;
5058;SDS011;2548;52.050;11.036;2024-03-25T02:43:06;3.13;;;2.80;;
5058;SDS011;2548;52.050;11.036;2024-03-25T02:45:34;2.42;;;2.20;;
5058;SDS011;2548;52.050;11.036;2024-03-25T02:48:00;3.10;;;2.40;;
5058;SDS011;2548;52.050;11.036;2024-03-25T02:50:27;2.60;;;2.40;;
5058;SDS011;2548;52.050;11.036;2024-03-25T02:52:53;4.07;;;2.65;;
5058;SDS011;2548;52.050;11.036;2024-03-25T02:55:21;6.25;;;2.13;;
5058;SDS011;2548;52.050;11.036;2024-03-25T02:57:47;4.60;;;2.28;;
5058;SDS011;2548;52.050;11.036;2024-03-25T03:00:16;2.55;;;2.35;;
5058;SDS011;2548;52.050;11.036;2024-03-25T03:02:43;9.18;;;2.47;;
5058;SDS011;2548;52.050;11.036;2024-03-25T03:05:10;2.53;;;2.30;;
5058;SDS011;2548;52.050;11.036;2024-03-25T03:10:07;12.77;;;2.88;;
5058;SDS011;2548;52.050;11.036;2024-03-25T03:12:34;7.22;;;4.57;;
5058;SDS011;2548;52.050;11.036;2024-03-25T03:15:01;8.15;;;3.30;;
5058;SDS011;2548;52.050;11.036;2024-03-25T03:17:29;6.13;;;3.10;;
5058;SDS011;2548;52.050;11.036;2024-03-25T03:19:56;5.72;;;2.65;;
5058;SDS011;2548;52.050;11.036;2024-03-25T03:22:23;3.95;;;2.58;;
5058;SDS011;2548;52.050;11.036;2024-03-25T03:24:49;7.88;;;3.05;;
5058;SDS011;2548;52.050;11.036;2024-03-25T03:27:17;12.38;;;3.45;;
5058;SDS011;2548;52.050;11.036;2024-03-25T03:29:43;2.78;;;2.55;;
5058;SDS011;2548;52.050;11.036;2024-03-25T03:32:10;6.50;;;3.10;;
5058;SDS011;2548;52.050;11.036;2024-03-25T03:34:38;10.88;;;2.90;;
5058;SDS011;2548;52.050;11.036;2024-03-25T03:37:05;3.83;;;2.10;;
5058;SDS011;2548;52.050;11.036;2024-03-25T03:39:32;8.48;;;2.50;;
5058;SDS011;2548;52.050;11.036;2024-03-25T03:41:59;6.85;;;3.00;;
5058;SDS011;2548;52.050;11.036;2024-03-25T03:44:25;7.07;;;2.67;;
5058;SDS011;2548;52.050;11.036;2024-03-25T03:46:53;4.50;;;3.25;;
5058;SDS011;2548;52.050;11.036;2024-03-25T03:49:19;7.53;;;2.85;;
5058;SDS011;2548;52.050;11.036;2024-03-25T03:51:48;8.55;;;4.65;;
5058;SDS011;2548;52.050;11.036;2024-03-25T03:54:14;5.03;;;2.78;;
5058;SDS011;2548;52.050;11.036;2024-03-25T03:56:41;4.50;;;4.07;;
5058;SDS011;2548;52.050;11.036;2024-03-25T03:59:07;10.73;;;4.15;;
5058;SDS011;2548;52.050;11.036;2024-03-25T04:01:35;6.38;;;3.90;;
5058;SDS011;2548;52.050;11.036;2024-03-25T04:04:01;6.22;;;3.03;;
5058;SDS011;2548;52.050;11.036;2024-03-25T04:06:28;4.07;;;3.10;;
5058;SDS011;2548;52.050;11.036;2024-03-25T04:08:56;4.00;;;2.55;;
5058;SDS011;2548;52.050;11.036;2024-03-25T04:11:23;4.55;;;2.30;;
5058;SDS011;2548;52.050;11.036;2024-03-25T04:13:50;3.55;;;2.42;;
5058;SDS011;2548;52.050;11.036;2024-03-25T04:16:17;8.82;;;3.50;;
5058;SDS011;2548;52.050;11.036;2024-03-25T04:18:43;13.88;;;2.55;;
5058;SDS011;2548;52.050;11.036;2024-03-25T04:21:12;10.48;;;3.60;;
5058;SDS011;2548;52.050;11.036;2024-03-25T04:23:39;3.42;;;3.05;;
5058;SDS011;2548;52.050;11.036;2024-03-25T04:26:08;5.60;;;3.40;;
5058;SDS011;2548;52.050;11.036;2024-03-25T04:28:34;8.45;;;4.07;;
5058;SDS011;2548;52.050;11.036;2024-03-25T04:31:01;5.55;;;3.45;;
5058;SDS011;2548;52.050;11.036;2024-03-25T04:33:28;7.63;;;2.90;;
5058;SDS011;2548;52.050;11.036;2024-03-25T04:35:55;6.93;;;3.42;;
5058;SDS011;2548;52.050;11.036;2024-03-25T04:38:22;14.75;;;3.42;;
5058;SDS011;2548;52.050;11.036;2024-03-25T04:40:48;5.43;;;3.58;;
5058;SDS011;2548;52.050;11.036;2024-03-25T04:43:16;9.55;;;4.05;;
5058;SDS011;2548;52.050;11.036;2024-03-25T04:45:42;5.90;;;3.50;;
5058;SDS011;2548;52.050;11.036;2024-03-25T04:48:09;13.40;;;3.65;;
5058;SDS011;2548;52.050;11.036;2024-03-25T04:50:35;6.78;;;3.85;;
5058;SDS011;2548;52.050;11.036;2024-03-25T04:53:02;6.85;;;3.80;;
5058;SDS011;2548;52.050;11.036;2024-03-25T04:55:28;6.38;;;3.58;;
5058;SDS011;2548;52.050;11.036;2024-03-25T04:57:55;4.28;;;3.30;;
5058;SDS011;2548;52.050;11.036;2024-03-25T05:00:22;8.55;;;3.75;;
5058;SDS011;2548;52.050;11.036;2024-03-25T05:02:49;9.13;;;2.97;;
5058;SDS011;2548;52.050;11.036;2024-03-25T05:05:15;5.85;;;3.58;;
5058;SDS011;2548;52.050;11.036;2024-03-25T05:07:41;16.52;;;5.65;;
5058;SDS011;2548;52.050;11.036;2024-03-25T05:10:08;14.85;;;3.97;;
5058;SDS011;2548;52.050;11.036;2024-03-25T05:12:34;5.72;;;4.15;;
5058;SDS011;2548;52.050;11.036;2024-03-25T05:15:01;7.40;;;3.17;;
5058;SDS011;2548;52.050;11.036;2024-03-25T05:17:29;8.30;;;3.22;;
5058;SDS011;2548;52.050;11.036;2024-03-25T05:19:55;14.27;;;3.90;;
5058;SDS011;2548;52.050;11.036;2024-03-25T05:22:21;3.85;;;3.47;;
5058;SDS011;2548;52.050;11.036;2024-03-25T05:24:48;12.52;;;3.47;;
5058;SDS011;2548;52.050;11.036;2024-03-25T05:27:15;8.07;;;4.35;;
5058;SDS011;2548;52.050;11.036;2024-03-25T05:29:41;7.55;;;3.75;;
5058;SDS011;2548;52.050;11.036;2024-03-25T05:32:07;7.65;;;3.20;;
5058;SDS011;2548;52.050;11.036;2024-03-25T05:34:35;5.65;;;3.30;;
5058;SDS011;2548;52.050;11.036;2024-03-25T05:37:01;8.82;;;4.13;;
5058;SDS011;2548;52.050;11.036;2024-03-25T05:39:28;10.60;;;3.45;;
5058;SDS011;2548;52.050;11.036;2024-03-25T05:41:54;6.72;;;3.90;;
5058;SDS011;2548;52.050;11.036;2024-03-25T05:44:20;11.52;;;3.90;;
5058;SDS011;2548;52.050;11.036;2024-03-25T05:46:47;7.18;;;3.65;;
5058;SDS011;2548;52.050;11.036;2024-03-25T05:49:13;4.28;;;3.45;;
5058;SDS011;2548;52.050;11.036;2024-03-25T05:51:41;10.88;;;4.35;;
5058;SDS011;2548;52.050;11.036;2024-03-25T05:54:08;7.90;;;3.70;;
5058;SDS011;2548;52.050;11.036;2024-03-25T05:56:34;5.13;;;3.47;;
5058;SDS011;2548;52.050;11.036;2024-03-25T05:59:00;6.90;;;3.00;;
5058;SDS011;2548;52.050;11.036;2024-03-25T06:01:27;5.97;;;2.90;;
5058;SDS011;2548;52.050;11.036;2024-03-25T06:03:53;7.53;;;2.88;;
5058;SDS011;2548;52.050;11.036;2024-03-25T06:06:20;12.93;;;2.60;;
5058;SDS011;2548;52.050;11.036;2024-03-25T06:08:47;16.17;;;2.95;;
5058;SDS011;2548;52.050;11.036;2024-03-25T06:11:14;5.07;;;2.97;;
5058;SDS011;2548;52.050;11.036;2024-03-25T06:13:40;11.75;;;3.45;;
5058;SDS011;2548;52.050;11.036;2024-03-25T06:16:07;13.05;;;2.72;;
5058;SDS011;2548;52.050;11.036;2024-03-25T06:18:33;3.78;;;2.83;;
5058;SDS011;2548;52.050;11.036;2024-03-25T06:20:59;3.85;;;3.10;;
5058;SDS011;2548;52.050;11.036;2024-03-25T06:23:26;7.05;;;2.60;;
5058;SDS011;2548;52.050;11.036;2024-03-25T06:25:55;14.82;;;3.05;;
5058;SDS011;2548;52.050;11.036;2024-03-25T06:28:22;7.47;;;3.55;;
5058;SDS011;2548;52.050;11.036;2024-03-25T06:30:49;16.45;;;3.15;;
5058;SDS011;2548;52.050;11.036;2024-03-25T06:33:34;5.97;;;2.65;;
5058;SDS011;2548;52.050;11.036;2024-03-25T06:36:25;4.35;;;2.88;;
5058;SDS011;2548;52.050;11.036;2024-03-25T06:38:51;8.55;;;3.05;;
5058;SDS011;2548;52.050;11.036;2024-03-25T06:41:19;4.03;;;2.95;;
5058;SDS011;2548;52.050;11.036;2024-03-25T06:43:46;7.03;;;2.03;;
5058;SDS011;2548;52.050;11.036;2024-03-25T06:46:12;10.55;;;2.40;;
5058;SDS011;2548;52.050;11.036;2024-03-25T06:48:38;6.47;;;2.30;;
5058;SDS011;2548;52.050;11.036;2024-03-25T06:51:05;7.32;;;3.08;;
5058;SDS011;2548;52.050;11.036;2024-03-25T06:53:31;5.40;;;2.95;;
5058;SDS011;2548;52.050;11.036;2024-03-25T06:55:58;3.60;;;2.92;;
5058;SDS011;2548;52.050;11.036;2024-03-25T06:58:27;7.10;;;3.70;;
5058;SDS011;2548;52.050;11.036;2024-03-25T07:00:54;8.45;;;3.35;;
5058;SDS011;2548;52.050;11.036;2024-03-25T07:03:21;12.13;;;3.63;;
5058;SDS011;2548;52.050;11.036;2024-03-25T07:05:49;5.57;;;4.70;;
5058;SDS011;2548;52.050;11.036;2024-03-25T07:08:17;7.25;;;4.20;;
5058;SDS011;2548;52.050;11.036;2024-03-25T07:10:43;11.70;;;3.47;;
5058;SDS011;2548;52.050;11.036;2024-03-25T07:13:10;11.10;;;3.88;;
5058;SDS011;2548;52.050;11.036;2024-03-25T07:15:38;7.20;;;4.43;;
5058;SDS011;2548;52.050;11.036;2024-03-25T07:18:05;9.68;;;4.25;;
5058;SDS011;2548;52.050;11.036;2024-03-25T07:20:32;14.25;;;4.70;;
5058;SDS011;2548;52.050;11.036;2024-03-25T07:22:58;10.45;;;4.75;;
5058;SDS011;2548;52.050;11.036;2024-03-25T07:25:25;17.20;;;5.00;;
5058;SDS011;2548;52.050;11.036;2024-03-25T07:27:52;12.15;;;6.38;;
5058;SDS011;2548;52.050;11.036;2024-03-25T07:30:18;12.85;;;6.03;;
5058;SDS011;2548;52.050;11.036;2024-03-25T07:32:46;8.75;;;4.93;;
5058;SDS011;2548;52.050;11.036;2024-03-25T07:35:12;11.35;;;5.53;;
5058;SDS011;2548;52.050;11.036;2024-03-25T07:37:39;12.50;;;4.78;;
5058;SDS011;2548;52.050;11.036;2024-03-25T07:40:06;14.77;;;6.13;;
5058;SDS011;2548;52.050;11.036;2024-03-25T07:42:34;7.82;;;4.65;;
5058;SDS011;2548;52.050;11.036;2024-03-25T07:45:01;15.02;;;6.60;;
5058;SDS011;2548;52.050;11.036;2024-03-25T07:47:27;17.67;;;5.03;;
5058;SDS011;2548;52.050;11.036;2024-03-25T07:49:55;22.17;;;6.22;;
5058;SDS011;2548;52.050;11.036;2024-03-25T07:52:21;17.98;;;6.60;;
5058;SDS011;2548;52.050;11.036;2024-03-25T07:54:48;16.23;;;5.05;;
5058;SDS011;2548;52.050;11.036;2024-03-25T07:57:14;20.25;;;5.50;;
5058;SDS011;2548;52.050;11.036;2024-03-25T07:59:42;16.40;;;5.55;;
5058;SDS011;2548;52.050;11.036;2024-03-25T08:02:08;12.68;;;6.60;;
5058;SDS011;2548;52.050;11.036;2024-03-25T08:04:34;25.05;;;6.10;;
5058;SDS011;2548;52.050;11.036;2024-03-25T08:07:02;11.38;;;5.68;;
5058;SDS011;2548;52.050;11.036;2024-03-25T08:09:29;9.00;;;6.53;;
5058;SDS011;2548;52.050;11.036;2024-03-25T08:11:55;12.63;;;6.22;;
5058;SDS011;2548;52.050;11.036;2024-03-25T08:14:22;13.85;;;5.47;;
5058;SDS011;2548;52.050;11.036;2024-03-25T08:16:49;5.53;;;3.42;;
5058;SDS011;2548;52.050;11.036;2024-03-25T08:19:15;5.03;;;4.07;;
5058;SDS011;2548;52.050;11.036;2024-03-25T08:21:42;10.02;;;2.90;;
5058;SDS011;2548;52.050;11.036;2024-03-25T08:24:10;3.60;;;2.00;;
5058;SDS011;2548;52.050;11.036;2024-03-25T08:26:37;4.65;;;2.72;;
5058;SDS011;2548;52.050;11.036;2024-03-25T08:29:04;5.72;;;2.63;;
5058;SDS011;2548;52.050;11.036;2024-03-25T08:31:30;4.47;;;3.20;;
5058;SDS011;2548;52.050;11.036;2024-03-25T08:33:57;6.57;;;4.00;;
5058;SDS011;2548;52.050;11.036;2024-03-25T08:36:23;7.70;;;3.88;;
5058;SDS011;2548;52.050;11.036;2024-03-25T08:38:49;7.20;;;4.60;;
5058;SDS011;2548;52.050;11.036;2024-03-25T08:41:17;8.18;;;4.35;;
5058;SDS011;2548;52.050;11.036;2024-03-25T08:43:43;12.27;;;4.63;;
5058;SDS011;2548;52.050;11.036;2024-03-25T08:46:10;9.68;;;4.65;;
5058;SDS011;2548;52.050;11.036;2024-03-25T08:48:36;10.20;;;4.00;;
5058;SDS011;2548;52.050;11.036;2024-03-25T08:51:03;14.63;;;4.30;;
5058;SDS011;2548;52.050;11.036;2024-03-25T08:53:29;22.83;;;5.72;;
5058;SDS011;2548;52.050;11.036;2024-03-25T08:55:56;11.57;;;5.35;;
5058;SDS011;2548;52.050;11.036;2024-03-25T08:58:24;7.95;;;4.10;;
5058;SDS011;2548;52.050;11.036;2024-03-25T09:00:50;8.35;;;4.25;;
5058;SDS011;2548;52.050;11.036;2024-03-25T09:03:17;19.35;;;4.47;;
5058;SDS011;2548;52.050;11.036;2024-03-25T09:05:43;11.88;;;3.80;;
5058;SDS011;2548;52.050;11.036;2024-03-25T09:08:09;14.13;;;5.30;;
5058;SDS011;2548;52.050;11.036;2024-03-25T09:10:36;13.23;;;4.30;;
5058;SDS011;2548;52.050;11.036;2024-03-25T09:13:21;7.13;;;3.97;;
5058;SDS011;2548;52.050;11.036;2024-03-25T09:15:49;8.13;;;4.10;;
5058;SDS011;2548;52.050;11.036;2024-03-25T09:18:18;6.60;;;3.38;;
5058;SDS011;2548;52.050;11.036;2024-03-25T09:20:45;11.75;;;3.85;;
5058;SDS011;2548;52.050;11.036;2024-03-25T09:23:15;12.13;;;4.10;;
5058;SDS011;2548;52.050;11.036;2024-03-25T09:25:52;12.23;;;4.00;;
5058;SDS011;2548;52.050;11.036;2024-03-25T09:28:37;6.88;;;3.40;;
5058;SDS011;2548;52.050;11.036;2024-03-25T09:31:04;10.40;;;4.70;;
5058;SDS011;2548;52.050;11.036;2024-03-25T09:33:31;14.38;;;6.65;;
5058;SDS011;2548;52.050;11.036;2024-03-25T09:36:00;10.77;;;4.35;;
5058;SDS011;2548;52.050;11.036;2024-03-25T09:38:29;12.77;;;3.33;;
5058;SDS011;2548;52.050;11.036;2024-03-25T09:40:56;13.52;;;3.67;;
5058;SDS011;2548;52.050;11.036;2024-03-25T09:46:18;13.20;;;4.70;;
5058;SDS011;2548;52.050;11.036;2024-03-25T09:48:52;6.45;;;4.20;;
5058;SDS011;2548;52.050;11.036;2024-03-25T09:51:21;14.85;;;5.10;;
5058;SDS011;2548;52.050;11.036;2024-03-25T09:56:33;12.68;;;4.50;;
5058;SDS011;2548;52.050;11.036;2024-03-25T09:59:02;9.18;;;3.75;;
5058;SDS011;2548;52.050;11.036;2024-03-25T10:01:29;18.75;;;4.25;;
5058;SDS011;2548;52.050;11.036;2024-03-25T10:03:56;18.70;;;4.03;;
5058;SDS011;2548;52.050;11.036;2024-03-25T10:06:22;10.57;;;4.97;;
5058;SDS011;2548;52.050;11.036;2024-03-25T10:08:49;14.25;;;3.70;;
5058;SDS011;2548;52.050;11.036;2024-03-25T10:11:19;9.05;;;3.05;;
5058;SDS011;2548;52.050;11.036;2024-03-25T10:13:45;8.63;;;3.22;;
5058;SDS011;2548;52.050;11.036;2024-03-25T10:16:13;11.00;;;4.78;;
5058;SDS011;2548;52.050;11.036;2024-03-25T10:18:40;12.82;;;3.80;;
5058;SDS011;2548;52.050;11.036;2024-03-25T10:21:09;9.60;;;3.83;;
5058;SDS011;2548;52.050;11.036;2024-03-25T10:23:36;11.55;;;5.55;;
5058;SDS011;2548;52.050;11.036;2024-03-25T10:26:05;18.60;;;6.28;;
5058;SDS011;2548;52.050;11.036;2024-03-25T10:28:32;21.60;;;9.38;;
5058;SDS011;2548;52.050;11.036;2024-03-25T10:31:02;18.30;;;6.85;;
5058;SDS011;2548;52.050;11.036;2024-03-25T10:33:30;27.25;;;10.55;;
5058;SDS011;2548;52.050;11.036;2024-03-25T10:35:57;35.38;;;9.00;;
5058;SDS011;2548;52.050;11.036;2024-03-25T10:38:27;15.15;;;4.60;;
5058;SDS011;2548;52.050;11.036;2024-03-25T10:40:55;14.40;;;4.85;;
5058;SDS011;2548;52.050;11.036;2024-03-25T10:43:23;11.82;;;3.00;;
5058;SDS011;2548;52.050;11.036;2024-03-25T10:46:55;7.57;;;2.88;;
5058;SDS011;2548;52.050;11.036;2024-03-25T10:49:31;5.30;;;2.65;;
5058;SDS011;2548;52.050;11.036;2024-03-25T10:52:00;5.88;;;3.10;;
5058;SDS011;2548;52.050;11.036;2024-03-25T10:54:29;13.88;;;3.65;;
5058;SDS011;2548;52.050;11.036;2024-03-25T10:56:57;10.95;;;3.95;;
5058;SDS011;2548;52.050;11.036;2024-03-25T10:59:24;11.82;;;2.65;;
5058;SDS011;2548;52.050;11.036;2024-03-25T11:01:52;6.68;;;1.90;;
5058;SDS011;2548;52.050;11.036;2024-03-25T11:04:19;9.25;;;2.42;;
5058;SDS011;2548;52.050;11.036;2024-03-25T11:06:47;4.93;;;1.90;;
5058;SDS011;2548;52.050;11.036;2024-03-25T11:09:23;9.95;;;2.40;;
5058;SDS011;2548;52.050;11.036;2024-03-25T11:11:53;11.68;;;3.78;;
5058;SDS011;2548;52.050;11.036;2024-03-25T11:14:19;16.20;;;4.53;;
5058;SDS011;2548;52.050;11.036;2024-03-25T11:16:50;10.02;;;4.18;;
5058;SDS011;2548;52.050;11.036;2024-03-25T11:19:17;10.05;;;3.30;;
5058;SDS011;2548;52.050;11.036;2024-03-25T11:21:44;11.93;;;2.90;;
5058;SDS011;2548;52.050;11.036;2024-03-25T11:24:12;3.65;;;2.30;;
5058;SDS011;2548;52.050;11.036;2024-03-25T11:26:42;5.20;;;2.60;;
5058;SDS011;2548;52.050;11.036;2024-03-25T11:29:08;10.85;;;2.70;;
5058;SDS011;2548;52.050;11.036;2024-03-25T11:31:35;5.63;;;2.88;;
5058;SDS011;2548;52.050;11.036;2024-03-25T11:34:05;9.10;;;2.72;;
5058;SDS011;2548;52.050;11.036;2024-03-25T11:36:31;8.30;;;2.75;;
5058;SDS011;2548;52.050;11.036;2024-03-25T11:38:58;5.40;;;2.20;;
5058;SDS011;2548;52.050;11.036;2024-03-25T11:41:26;11.40;;;2.30;;
5058;SDS011;2548;52.050;11.036;2024-03-25T11:43:53;5.00;;;2.15;;
5058;SDS011;2548;52.050;11.036;2024-03-25T11:46:19;10.30;;;2.83;;
5058;SDS011;2548;52.050;11.036;2024-03-25T11:48:45;11.45;;;2.40;;
5058;SDS011;2548;52.050;11.036;2024-03-25T11:51:12;6.93;;;2.20;;
5058;SDS011;2548;52.050;11.036;2024-03-25T11:53:42;6.90;;;2.47;;
5058;SDS011;2548;52.050;11.036;2024-03-25T11:56:08;17.13;;;2.17;;
5058;SDS011;2548;52.050;11.036;2024-03-25T11:58:38;6.03;;;2.45;;
5058;SDS011;2548;52.050;11.036;2024-03-25T12:01:04;8.40;;;1.83;;
5058;SDS011;2548;52.050;11.036;2024-03-25T12:03:33;2.97;;;2.05;;
5058;SDS011;2548;52.050;11.036;2024-03-25T12:05:59;13.55;;;2.55;;
5058;SDS011;2548;52.050;11.036;2024-03-25T12:08:26;7.80;;;2.47;;
5058;SDS011;2548;52.050;11.036;2024-03-25T12:10:53;6.43;;;3.80;;
5058;SDS011;2548;52.050;11.036;2024-03-25T12:13:39;9.70;;;2.83;;
5058;SDS011;2548;52.050;11.036;2024-03-25T12:16:05;10.20;;;2.55;;
5058;SDS011;2548;52.050;11.036;2024-03-25T12:18:32;18.75;;;4.65;;
5058;SDS011;2548;52.050;11.036;2024-03-25T12:21:00;9.02;;;3.10;;
5058;SDS011;2548;52.050;11.036;2024-03-25T12:23:28;5.18;;;2.78;;
5058;SDS011;2548;52.050;11.036;2024-03-25T12:25:55;10.00;;;2.28;;
5058;SDS011;2548;52.050;11.036;2024-03-25T12:28:22;11.25;;;3.05;;
5058;SDS011;2548;52.050;11.036;2024-03-25T12:30:50;20.25;;;4.95;;
5058;SDS011;2548;52.050;11.036;2024-03-25T12:33:17;4.65;;;2.90;;
5058;SDS011;2548;52.050;11.036;2024-03-25T12:35:48;14.43;;;4.93;;
5058;SDS011;2548;52.050;11.036;2024-03-25T12:38:24;11.70;;;3.45;;
5058;SDS011;2548;52.050;11.036;2024-03-25T12:40:51;11.68;;;2.47;;
5058;SDS011;2548;52.050;11.036;2024-03-25T12:43:18;9.50;;;2.60;;
5058;SDS011;2548;52.050;11.036;2024-03-25T12:45:45;9.45;;;2.60;;
5058;SDS011;2548;52.050;11.036;2024-03-25T12:48:13;13.10;;;3.95;;
5058;SDS011;2548;52.050;11.036;2024-03-25T12:50:39;16.85;;;7.60;;
5058;SDS011;2548;52.050;11.036;2024-03-25T12:53:06;20.25;;;6.03;;
5058;SDS011;2548;52.050;11.036;2024-03-25T12:55:32;6.63;;;3.28;;
5058;SDS011;2548;52.050;11.036;2024-03-25T12:57:58;6.22;;;2.97;;
5058;SDS011;2548;52.050;11.036;2024-03-25T13:00:25;10.23;;;2.60;;
5058;SDS011;2548;52.050;11.036;2024-03-25T13:02:51;6.95;;;2.70;;
5058;SDS011;2548;52.050;11.036;2024-03-25T13:05:19;11.15;;;3.03;;
5058;SDS011;2548;52.050;11.036;2024-03-25T13:07:45;9.70;;;3.40;;
5058;SDS011;2548;52.050;11.036;2024-03-25T13:10:12;5.70;;;2.63;;
5058;SDS011;2548;52.050;11.036;2024-03-25T13:12:38;5.03;;;2.13;;
5058;SDS011;2548;52.050;11.036;2024-03-25T13:15:05;7.65;;;2.00;;
5058;SDS011;2548;52.050;11.036;2024-03-25T13:17:32;14.88;;;3.08;;
5058;SDS011;2548;52.050;11.036;2024-03-25T13:19:58;10.68;;;2.58;;
5058;SDS011;2548;52.050;11.036;2024-03-25T13:22:26;7.03;;;2.25;;
5058;SDS011;2548;52.050;11.036;2024-03-25T13:24:53;13.25;;;2.63;;
5058;SDS011;2548;52.050;11.036;2024-03-25T13:27:19;2.75;;;1.70;;
5058;SDS011;2548;52.050;11.036;2024-03-25T13:29:45;7.65;;;2.72;;
5058;SDS011;2548;52.050;11.036;2024-03-25T13:32:12;5.20;;;1.85;;
5058;SDS011;2548;52.050;11.036;2024-03-25T13:34:38;12.25;;;2.95;;
5058;SDS011;2548;52.050;11.036;2024-03-25T13:37:05;5.85;;;2.10;;
5058;SDS011;2548;52.050;11.036;2024-03-25T13:39:33;9.13;;;2.03;;
5058;SDS011;2548;52.050;11.036;2024-03-25T13:41:59;3.28;;;2.20;;
5058;SDS011;2548;52.050;11.036;2024-03-25T13:44:26;7.28;;;4.15;;
5058;SDS011;2548;52.050;11.036;2024-03-25T13:46:53;6.93;;;2.22;;
5058;SDS011;2548;52.050;11.036;2024-03-25T13:49:19;8.15;;;2.28;;
5058;SDS011;2548;52.050;11.036;2024-03-25T13:51:46;5.60;;;2.97;;
5058;SDS011;2548;52.050;11.036;2024-03-25T13:54:12;8.95;;;2.50;;
5058;SDS011;2548;52.050;11.036;2024-03-25T13:56:40;13.95;;;2.50;;
5058;SDS011;2548;52.050;11.036;2024-03-25T13:59:06;10.20;;;2.95;;
5058;SDS011;2548;52.050;11.036;2024-03-25T14:01:33;5.43;;;2.45;;
5058;SDS011;2548;52.050;11.036;2024-03-25T14:03:59;11.00;;;2.20;;
5058;SDS011;2548;52.050;11.036;2024-03-25T14:06:26;5.28;;;2.35;;
5058;SDS011;2548;52.050;11.036;2024-03-25T14:08:52;5.82;;;2.20;;
5058;SDS011;2548;52.050;11.036;2024-03-25T14:11:18;5.00;;;2.28;;
5058;SDS011;2548;52.050;11.036;2024-03-25T14:13:46;11.15;;;2.05;;
5058;SDS011;2548;52.050;11.036;2024-03-25T14:16:12;6.55;;;2.10;;
5058;SDS011;2548;52.050;11.036;2024-03-25T14:18:39;10.68;;;2.38;;
5058;SDS011;2548;52.050;11.036;2024-03-25T14:21:05;8.88;;;2.58;;
5058;SDS011;2548;52.050;11.036;2024-03-25T14:23:32;12.30;;;2.50;;
5058;SDS011;2548;52.050;11.036;2024-03-25T14:25:58;6.55;;;2.00;;
5058;SDS011;2548;52.050;11.036;2024-03-25T14:28:24;8.60;;;2.83;;
5058;SDS011;2548;52.050;11.036;2024-03-25T14:30:52;5.70;;;1.98;;
5058;SDS011;2548;52.050;11.036;2024-03-25T14:33:18;5.05;;;1.50;;
5058;SDS011;2548;52.050;11.036;2024-03-25T14:35:45;9.15;;;2.10;;
5058;SDS011;2548;52.050;11.036;2024-03-25T14:38:11;5.80;;;1.48;;
5058;SDS011;2548;52.050;11.036;2024-03-25T14:40:38;3.65;;;2.20;;
5058;SDS011;2548;52.050;11.036;2024-03-25T14:43:04;7.90;;;1.90;;
5058;SDS011;2548;52.050;11.036;2024-03-25T14:45:30;7.60;;;2.30;;
5058;SDS011;2548;52.050;11.036;2024-03-25T14:47:58;7.75;;;1.70;;
5058;SDS011;2548;52.050;11.036;2024-03-25T14:50:24;5.15;;;1.90;;
5058;SDS011;2548;52.050;11.036;2024-03-25T14:52:51;6.35;;;3.03;;
5058;SDS011;2548;52.050;11.036;2024-03-25T14:55:17;7.20;;;2.35;;
5058;SDS011;2548;52.050;11.036;2024-03-25T14:57:44;7.82;;;2.50;;
5058;SDS011;2548;52.050;11.036;2024-03-25T15:00:10;8.02;;;2.10;;
5058;SDS011;2548;52.050;11.036;2024-03-25T15:02:38;9.73;;;2.08;;
5058;SDS011;2548;52.050;11.036;2024-03-25T15:05:06;11.15;;;2.33;;